createdAt,value
2018-06-14T00:01:08.774Z,0
2018-06-14T00:02:18.836Z,0
2018-06-14T00:03:28.952Z,0
2018-06-14T00:04:39.038Z,0
2018-06-14T00:05:49.109Z,0
2018-06-14T00:06:59.167Z,0
2018-06-14T00:08:09.241Z,0
2018-06-14T00:09:19.328Z,0
2018-06-14T00:10:29.399Z,0
2018-06-14T00:11:39.478Z,0
2018-06-14T00:12:49.556Z,0
2018-06-14T00:13:59.605Z,0
2018-06-14T00:15:09.168Z,0
2018-06-14T00:16:18.999Z,0
2018-06-14T00:17:28.721Z,0
2018-06-14T00:18:38.559Z,0
2018-06-14T00:19:48.637Z,0
2018-06-14T00:20:58.477Z,0
2018-06-14T00:22:08.564Z,0
2018-06-14T00:23:18.645Z,0
2018-06-14T00:24:28.713Z,0
2018-06-14T00:25:38.798Z,0
2018-06-14T00:26:48.880Z,0
2018-06-14T00:27:58.975Z,0
2018-06-14T00:29:09.043Z,0
2018-06-14T00:30:18.863Z,0
2018-06-14T00:31:28.953Z,0
2018-06-14T00:32:39.029Z,0
2018-06-14T00:33:49.098Z,0
2018-06-14T00:34:59.228Z,0
2018-06-14T00:36:09.307Z,0
2018-06-14T00:37:19.380Z,0
2018-06-14T00:38:29.465Z,0
2018-06-14T00:39:39.538Z,0
2018-06-14T00:40:49.627Z,0
2018-06-14T00:41:59.711Z,0
2018-06-14T00:43:09.814Z,0
2018-06-14T00:44:19.893Z,0
2018-06-14T00:45:29.958Z,0
2018-06-14T00:46:39.786Z,0
2018-06-14T00:47:49.600Z,0
2018-06-14T00:48:59.678Z,0
2018-06-14T00:50:09.765Z,0
2018-06-14T00:51:19.844Z,0
2018-06-14T00:52:29.909Z,0
2018-06-14T00:53:39.969Z,0
2018-06-14T00:54:49.792Z,0
2018-06-14T00:55:59.881Z,0
2018-06-14T00:57:09.948Z,0
2018-06-14T00:58:20.064Z,0
2018-06-14T00:59:30.136Z,0
2018-06-14T01:00:40.224Z,0
2018-06-14T01:01:50.509Z,0
2018-06-14T01:03:00.587Z,0
2018-06-14T01:04:10.658Z,0
2018-06-14T01:05:20.727Z,0
2018-06-14T01:06:30.278Z,0
2018-06-14T01:07:40.109Z,0
2018-06-14T01:08:50.190Z,0
2018-06-14T01:10:00.015Z,0
2018-06-14T01:11:09.577Z,0
2018-06-14T01:12:19.641Z,0
2018-06-14T01:13:29.713Z,0
2018-06-14T01:14:39.781Z,0
2018-06-14T01:15:49.605Z,0
2018-06-14T01:16:59.668Z,0
2018-06-14T01:18:09.740Z,0
2018-06-14T01:19:19.816Z,0
2018-06-14T01:20:29.893Z,0
2018-06-14T01:21:39.994Z,0
2018-06-14T01:22:49.810Z,0
2018-06-14T01:23:59.895Z,0
2018-06-14T01:25:09.987Z,0
2018-06-14T01:26:20.045Z,0
2018-06-14T01:27:30.187Z,0
2018-06-14T01:28:40.012Z,0
2018-06-14T01:29:50.074Z,0
2018-06-14T01:30:59.902Z,0
2018-06-14T01:32:09.695Z,0
2018-06-14T01:33:19.822Z,0
2018-06-14T01:34:29.642Z,0
2018-06-14T01:35:39.456Z,0
2018-06-14T01:36:49.531Z,0
2018-06-14T01:37:59.627Z,0
2018-06-14T01:39:09.457Z,0
2018-06-14T01:40:19.290Z,0
2018-06-14T01:41:29.380Z,0
2018-06-14T01:42:39.462Z,0
2018-06-14T01:43:49.551Z,0
2018-06-14T01:44:59.646Z,0
2018-06-14T01:46:09.460Z,0
2018-06-14T01:47:19.535Z,0
2018-06-14T01:48:29.616Z,0
2018-06-14T01:49:39.426Z,0
2018-06-14T01:50:49.568Z,0
2018-06-14T01:51:59.653Z,0
2018-06-14T01:53:09.457Z,0
2018-06-14T01:54:19.007Z,0
2018-06-14T01:55:28.808Z,0
2018-06-14T01:56:38.680Z,0
2018-06-14T01:57:48.735Z,0
2018-06-14T01:58:58.797Z,0
2018-06-14T02:00:08.878Z,0
2018-06-14T02:01:18.674Z,0
2018-06-14T02:02:28.494Z,0
2018-06-14T02:03:38.595Z,0
2018-06-14T02:04:48.131Z,0
2018-06-14T02:05:58.199Z,0
2018-06-14T02:07:08.263Z,0
2018-06-14T02:08:18.338Z,0
2018-06-14T02:09:28.148Z,0
2018-06-14T02:10:38.210Z,0
2018-06-14T02:11:48.305Z,0
2018-06-14T02:12:58.108Z,0
2018-06-14T02:14:08.172Z,0
2018-06-14T02:15:17.966Z,0
2018-06-14T02:16:28.033Z,0
2018-06-14T02:17:38.100Z,0
2018-06-14T02:18:48.172Z,0
2018-06-14T02:19:57.972Z,0
2018-06-14T02:21:08.058Z,0
2018-06-14T02:22:18.125Z,0
2018-06-14T02:23:28.196Z,0
2018-06-14T02:24:38.260Z,0
2018-06-14T02:25:48.122Z,0
2018-06-14T02:26:57.670Z,0
2018-06-14T02:28:07.745Z,0
2018-06-14T02:29:17.815Z,0
2018-06-14T02:30:27.896Z,0
2018-06-14T02:31:37.983Z,0
2018-06-14T02:32:48.082Z,0
2018-06-14T02:33:58.173Z,0
2018-06-14T02:35:08.246Z,0
2018-06-14T02:36:18.325Z,0
2018-06-14T02:37:28.398Z,0
2018-06-14T02:38:38.207Z,0
2018-06-14T02:39:48.281Z,0
2018-06-14T02:40:58.095Z,0
2018-06-14T02:42:08.179Z,0
2018-06-14T02:43:18.307Z,0
2018-06-14T02:44:28.131Z,0
2018-06-14T02:45:38.225Z,0
2018-06-14T02:46:48.050Z,0
2018-06-14T02:47:58.139Z,0
2018-06-14T02:49:08.277Z,0
2018-06-14T02:50:17.824Z,0
2018-06-14T02:51:27.886Z,0
2018-06-14T02:52:37.966Z,0
2018-06-14T02:53:48.027Z,0
2018-06-14T02:54:58.115Z,0
2018-06-14T02:56:08.183Z,0
2018-06-14T02:57:17.730Z,0
2018-06-14T02:58:27.791Z,0
2018-06-14T02:59:37.886Z,0
2018-06-14T03:00:47.697Z,0
2018-06-14T03:01:57.766Z,0
2018-06-14T03:03:07.855Z,0
2018-06-14T03:34:55.975Z,5
2018-06-14T03:36:06.046Z,5
2018-06-14T03:37:16.121Z,5
2018-06-14T03:38:26.197Z,5
2018-06-14T03:39:36.260Z,5
2018-06-14T03:40:46.518Z,10
2018-06-14T03:41:56.603Z,10
2018-06-14T03:43:06.679Z,10
2018-06-14T03:44:16.481Z,10
2018-06-14T03:45:26.296Z,15
2018-06-14T03:46:36.604Z,15
2018-06-14T03:47:46.663Z,15
2018-06-14T03:48:56.727Z,15
2018-06-14T03:50:06.795Z,15
2018-06-14T03:51:16.609Z,15
2018-06-14T03:52:26.154Z,20
2018-06-14T03:53:36.237Z,20
2018-06-14T03:54:46.297Z,20
2018-06-14T03:55:56.365Z,20
2018-06-14T03:57:06.440Z,25
2018-06-14T03:58:16.264Z,25
2018-06-14T03:59:26.372Z,25
2018-06-14T04:00:36.172Z,25
2018-06-14T04:01:46.275Z,30
2018-06-14T04:02:55.826Z,30
2018-06-14T04:04:06.354Z,30
2018-06-14T04:05:16.528Z,30
2018-06-14T04:06:26.362Z,30
2018-06-14T04:07:36.166Z,30
2018-06-14T04:08:45.975Z,30
2018-06-14T04:09:56.051Z,30
2018-06-14T04:11:06.117Z,30
2018-06-14T04:12:16.192Z,30
2018-06-14T04:13:25.992Z,30
2018-06-14T04:14:36.087Z,30
2018-06-14T04:15:46.230Z,30
2018-06-14T04:16:56.299Z,35
2018-06-14T04:18:06.375Z,35
2018-06-14T04:19:16.520Z,35
2018-06-14T04:20:26.761Z,35
2018-06-14T04:21:36.264Z,40
2018-06-14T04:22:46.326Z,40
2018-06-14T04:23:56.394Z,40
2018-06-14T04:25:06.186Z,40
2018-06-14T04:26:16.293Z,40
2018-06-14T04:27:26.523Z,40
2018-06-14T04:28:36.603Z,45
2018-06-14T04:29:46.417Z,50
2018-06-14T04:30:56.516Z,50
2018-06-14T04:32:06.604Z,55
2018-06-14T04:33:16.458Z,55
2018-06-14T04:34:26.523Z,60
2018-06-14T04:35:36.632Z,60
2018-06-14T04:36:46.715Z,60
2018-06-14T04:37:56.520Z,60
2018-06-14T04:39:06.598Z,65
2018-06-14T04:40:16.672Z,65
2018-06-14T04:41:26.756Z,65
2018-06-14T04:42:36.832Z,65
2018-06-14T04:43:46.643Z,75
2018-06-14T04:44:56.718Z,70
2018-06-14T04:46:06.936Z,70
2018-06-14T04:47:16.754Z,75
2018-06-14T04:48:26.826Z,75
2018-06-14T04:49:36.895Z,75
2018-06-14T04:50:46.965Z,75
2018-06-14T04:51:56.522Z,75
2018-06-14T04:53:06.336Z,75
2018-06-14T04:54:16.432Z,75
2018-06-14T04:55:26.254Z,75
2018-06-14T04:56:36.315Z,75
2018-06-14T04:57:46.394Z,80
2018-06-14T04:58:56.452Z,80
2018-06-14T05:00:06.510Z,80
2018-06-14T05:01:16.358Z,85
2018-06-14T05:02:26.644Z,85
2018-06-14T05:03:36.788Z,90
2018-06-14T05:04:46.595Z,90
2018-06-14T05:05:56.676Z,90
2018-06-14T05:07:06.735Z,90
2018-06-14T05:08:16.553Z,90
2018-06-14T05:09:26.364Z,95
2018-06-14T05:10:36.190Z,95
2018-06-14T05:11:46.277Z,95
2018-06-14T05:12:56.090Z,100
2018-06-14T05:14:06.178Z,100
2018-06-14T05:15:16.242Z,100
2018-06-14T05:16:26.323Z,100
2018-06-14T05:17:36.408Z,105
2018-06-14T05:18:46.486Z,105
2018-06-14T05:19:56.552Z,105
2018-06-14T05:21:06.647Z,110
2018-06-14T05:22:16.752Z,110
2018-06-14T05:23:26.907Z,110
2018-06-14T05:24:36.986Z,110
2018-06-14T05:25:47.063Z,110
2018-06-14T05:26:57.144Z,110
2018-06-14T05:28:06.967Z,110
2018-06-14T05:29:17.039Z,110
2018-06-14T05:30:27.108Z,110
2018-06-14T05:31:37.241Z,110
2018-06-14T05:32:47.492Z,110
2018-06-14T05:33:57.574Z,110
2018-06-14T05:35:07.656Z,110
2018-06-14T05:36:17.482Z,110
2018-06-14T05:37:27.571Z,110
2018-06-14T05:38:37.673Z,105
2018-06-14T05:39:47.752Z,105
2018-06-14T05:40:57.849Z,105
2018-06-14T05:42:07.670Z,105
2018-06-14T05:43:17.769Z,100
2018-06-14T05:44:27.837Z,100
2018-06-14T05:45:37.913Z,100
2018-06-14T05:46:47.734Z,95
2018-06-14T05:47:57.501Z,90
2018-06-14T05:49:07.372Z,85
2018-06-14T05:50:17.205Z,80
2018-06-14T05:51:27.022Z,80
2018-06-14T05:52:37.111Z,75
2018-06-14T05:53:47.187Z,85
2018-06-14T05:54:57.299Z,80
2018-06-14T05:56:07.487Z,80
2018-06-14T05:57:17.620Z,80
2018-06-14T05:58:27.682Z,85
2018-06-14T05:59:37.235Z,90
2018-06-14T06:00:47.360Z,85
2018-06-14T06:01:56.907Z,85
2018-06-14T06:03:06.973Z,90
2018-06-14T06:04:17.046Z,90
2018-06-14T06:05:27.103Z,90
2018-06-14T06:06:37.184Z,95
2018-06-14T06:07:46.991Z,105
2018-06-14T06:08:56.812Z,110
2018-06-14T06:10:06.885Z,110
2018-06-14T06:11:16.961Z,110
2018-06-14T06:12:26.807Z,110
2018-06-14T06:13:36.629Z,110
2018-06-14T06:14:46.442Z,110
2018-06-14T06:15:56.547Z,105
2018-06-14T06:17:06.603Z,105
2018-06-14T06:18:16.422Z,100
2018-06-14T06:19:26.503Z,95
2018-06-14T06:20:36.603Z,95
2018-06-14T06:21:46.160Z,100
2018-06-14T06:22:55.725Z,100
2018-06-14T06:24:05.856Z,100
2018-06-14T06:25:15.952Z,105
2018-06-14T06:26:26.621Z,105
2018-06-14T06:27:36.696Z,110
2018-06-14T06:28:46.771Z,110
2018-06-14T06:29:56.897Z,110
2018-06-14T06:31:06.984Z,110
2018-06-14T06:32:17.046Z,110
2018-06-14T06:33:27.747Z,110
2018-06-14T06:34:37.900Z,110
2018-06-14T06:35:48.028Z,110
2018-06-14T06:36:57.853Z,115
2018-06-14T06:38:07.919Z,110
2018-06-14T06:39:17.991Z,105
2018-06-14T06:40:28.073Z,105
2018-06-14T06:41:37.639Z,110
2018-06-14T06:42:47.726Z,110
2018-06-14T06:43:57.811Z,110
2018-06-14T06:45:07.271Z,110
2018-06-14T06:46:16.970Z,115
2018-06-14T06:47:27.044Z,125
2018-06-14T06:48:37.150Z,125
2018-06-14T06:49:47.239Z,130
2018-06-14T06:50:57.330Z,135
2018-06-14T06:52:07.410Z,135
2018-06-14T06:53:17.705Z,135
2018-06-14T06:54:27.802Z,135
2018-06-14T06:55:37.884Z,135
2018-06-14T06:56:47.451Z,135
2018-06-14T06:57:57.519Z,135
2018-06-14T06:59:07.908Z,135
2018-06-14T07:00:17.451Z,135
2018-06-14T07:01:27.250Z,135
2018-06-14T07:02:37.301Z,130
2018-06-14T07:03:47.369Z,130
2018-06-14T07:04:57.241Z,130
2018-06-14T07:06:07.407Z,130
2018-06-14T07:07:17.320Z,130
2018-06-14T07:08:27.400Z,130
2018-06-14T07:09:37.492Z,130
2018-06-14T07:10:47.629Z,130
2018-06-14T07:11:57.541Z,130
2018-06-14T07:13:07.627Z,130
2018-06-14T07:14:17.711Z,130
2018-06-14T07:15:27.795Z,130
2018-06-14T07:16:37.622Z,130
2018-06-14T07:17:47.708Z,130
2018-06-14T07:18:57.777Z,130
2018-06-14T07:20:07.591Z,135
2018-06-14T07:21:17.153Z,135
2018-06-14T07:22:27.222Z,135
2018-06-14T07:23:37.290Z,135
2018-06-14T07:24:47.371Z,135
2018-06-14T07:25:57.441Z,140
2018-06-14T07:27:07.527Z,145
2018-06-14T07:28:17.388Z,145
2018-06-14T07:29:27.473Z,145
2018-06-14T07:30:37.278Z,145
2018-06-14T07:31:47.346Z,150
2018-06-14T07:32:57.425Z,150
2018-06-14T07:34:07.284Z,155
2018-06-14T07:35:17.366Z,160
2018-06-14T07:36:27.460Z,160
2018-06-14T07:37:37.534Z,165
2018-06-14T07:38:47.096Z,165
2018-06-14T07:39:56.662Z,170
2018-06-14T07:41:06.741Z,175
2018-06-14T07:42:16.559Z,175
2018-06-14T07:43:26.388Z,180
2018-06-14T07:44:36.228Z,180
2018-06-14T07:45:46.308Z,185
2018-06-14T07:46:56.136Z,190
2018-06-14T07:48:06.209Z,195
2018-06-14T07:49:16.297Z,205
2018-06-14T07:50:26.398Z,215
2018-06-14T07:51:36.524Z,210
2018-06-14T07:52:46.370Z,220
2018-06-14T07:53:56.440Z,220
2018-06-14T07:55:06.531Z,225
2018-06-14T07:56:16.615Z,225
2018-06-14T07:57:26.684Z,230
2018-06-14T07:58:36.767Z,230
2018-06-14T07:59:46.863Z,230
2018-06-14T08:00:56.692Z,230
2018-06-14T08:02:06.796Z,225
2018-06-14T08:03:16.882Z,225
2018-06-14T08:04:26.723Z,225
2018-06-14T08:05:36.800Z,225
2018-06-14T08:06:46.777Z,230
2018-06-14T08:07:56.877Z,230
2018-06-14T08:09:21.651Z,235
2018-06-14T08:10:31.748Z,235
2018-06-14T08:11:41.556Z,235
2018-06-14T08:12:51.708Z,245
2018-06-14T08:14:01.793Z,240
2018-06-14T08:15:11.636Z,235
2018-06-14T08:16:21.711Z,240
2018-06-14T08:17:31.522Z,240
2018-06-14T08:18:41.613Z,245
2018-06-14T08:19:51.720Z,250
2018-06-14T08:21:01.807Z,250
2018-06-14T08:22:11.614Z,250
2018-06-14T08:23:21.739Z,250
2018-06-14T08:24:31.817Z,250
2018-06-14T08:25:41.903Z,250
2018-06-14T08:26:52.002Z,250
2018-06-14T08:28:02.091Z,255
2018-06-14T08:29:12.229Z,260
2018-06-14T08:30:22.066Z,265
2018-06-14T08:31:32.381Z,265
2018-06-14T08:32:42.213Z,260
2018-06-14T08:33:52.324Z,260
2018-06-14T08:35:02.435Z,255
2018-06-14T08:36:12.521Z,250
2018-06-14T08:37:22.774Z,250
2018-06-14T08:38:32.874Z,250
2018-06-14T08:39:43.019Z,255
2018-06-14T08:40:53.179Z,255
2018-06-14T08:42:03.045Z,255
2018-06-14T08:43:12.869Z,260
2018-06-14T08:44:22.968Z,270
2018-06-14T08:45:33.071Z,275
2018-06-14T08:46:43.155Z,285
2018-06-14T08:47:52.707Z,290
2018-06-14T08:49:02.768Z,300
2018-06-14T08:50:13.030Z,305
2018-06-14T08:51:23.339Z,305
2018-06-14T08:52:33.421Z,300
2018-06-14T08:53:43.326Z,290
2018-06-14T08:54:53.440Z,285
2018-06-14T08:56:03.526Z,290
2018-06-14T08:57:13.611Z,285
2018-06-14T08:58:23.520Z,285
2018-06-14T08:59:33.339Z,280
2018-06-14T09:00:43.571Z,270
2018-06-14T09:01:53.665Z,265
2018-06-14T09:03:03.850Z,265
2018-06-14T09:04:13.944Z,265
2018-06-14T09:05:24.024Z,260
2018-06-14T09:06:34.100Z,260
2018-06-14T09:07:44.172Z,265
2018-06-14T09:08:54.288Z,265
2018-06-14T09:10:04.438Z,255
2018-06-14T09:11:14.590Z,255
2018-06-14T09:12:24.692Z,250
2018-06-14T09:13:34.774Z,250
2018-06-14T09:14:44.878Z,260
2018-06-14T09:15:54.984Z,270
2018-06-14T09:17:04.799Z,265
2018-06-14T09:18:14.873Z,260
2018-06-14T09:19:24.959Z,280
2018-06-14T09:20:35.058Z,285
2018-06-14T09:21:45.143Z,285
2018-06-14T09:22:55.017Z,280
2018-06-14T09:24:05.116Z,275
2018-06-14T09:25:15.220Z,280
2018-06-14T09:26:25.329Z,285
2018-06-14T09:27:35.423Z,290
2018-06-14T09:28:45.498Z,300
2018-06-14T09:29:55.664Z,300
2018-06-14T09:31:05.752Z,305
2018-06-14T09:32:15.574Z,295
2018-06-14T09:33:25.801Z,285
2018-06-14T09:34:35.878Z,280
2018-06-14T09:35:46.101Z,270
2018-06-14T09:36:55.983Z,265
2018-06-14T09:38:06.061Z,255
2018-06-14T09:39:15.859Z,250
2018-06-14T09:40:25.954Z,250
2018-06-14T09:41:36.061Z,250
2018-06-14T09:42:45.987Z,250
2018-06-14T09:43:56.155Z,250
2018-06-14T09:45:06.245Z,245
2018-06-14T09:46:16.351Z,245
2018-06-14T09:47:26.192Z,250
2018-06-14T09:48:36.261Z,250
2018-06-14T09:49:46.346Z,255
2018-06-14T09:50:56.466Z,255
2018-06-14T09:52:06.268Z,260
2018-06-14T09:53:16.364Z,255
2018-06-14T09:54:26.174Z,260
2018-06-14T09:55:35.989Z,260
2018-06-14T09:56:46.113Z,255
2018-06-14T09:57:56.227Z,260
2018-06-14T09:59:06.524Z,260
2018-06-14T10:00:16.917Z,260
2018-06-14T10:01:27.001Z,255
2018-06-14T10:02:37.097Z,255
2018-06-14T10:03:47.187Z,260
2018-06-14T10:04:57.288Z,270
2018-06-14T10:06:07.549Z,275
2018-06-14T10:07:17.706Z,280
2018-06-14T10:08:27.533Z,280
2018-06-14T10:09:37.854Z,275
2018-06-14T10:10:47.928Z,275
2018-06-14T10:11:58.005Z,270
2018-06-14T10:13:08.095Z,265
2018-06-14T10:14:18.177Z,270
2018-06-14T10:15:28.337Z,265
2018-06-14T10:16:37.910Z,255
2018-06-14T10:17:48.012Z,250
2018-06-14T10:18:57.954Z,240
2018-06-14T10:20:07.780Z,235
2018-06-14T10:21:17.869Z,235
2018-06-14T10:22:27.743Z,230
2018-06-14T10:23:37.837Z,230
2018-06-14T10:24:47.903Z,220
2018-06-14T10:25:57.994Z,215
2018-06-14T10:27:08.116Z,200
2018-06-14T10:28:18.181Z,195
2018-06-14T10:29:28.476Z,180
2018-06-14T10:30:38.387Z,180
2018-06-14T10:31:48.492Z,175
2018-06-14T10:32:58.608Z,165
2018-06-14T10:34:08.688Z,170
2018-06-14T10:35:18.808Z,180
2018-06-14T10:36:28.917Z,185
2018-06-14T10:37:38.717Z,190
2018-06-14T10:38:48.787Z,185
2018-06-14T10:39:58.867Z,175
2018-06-14T10:41:08.975Z,150
2018-06-14T10:42:19.051Z,135
2018-06-14T10:43:29.305Z,115
2018-06-14T10:44:38.626Z,105
2018-06-14T10:45:48.703Z,95
2018-06-14T10:46:58.770Z,80
2018-06-14T10:48:08.868Z,75
2018-06-14T10:49:18.949Z,70
2018-06-14T10:50:29.049Z,65
2018-06-14T10:51:39.132Z,65
2018-06-14T10:52:49.200Z,75
2018-06-14T10:53:58.761Z,80
2018-06-14T10:55:08.589Z,85
2018-06-14T10:56:18.681Z,85
2018-06-14T10:57:28.756Z,95
2018-06-14T10:58:38.890Z,110
2018-06-14T10:59:48.736Z,125
2018-06-14T11:00:58.833Z,140
2018-06-14T11:02:08.914Z,160
2018-06-14T11:03:18.992Z,160
2018-06-14T11:04:29.145Z,160
2018-06-14T11:05:39.237Z,145
2018-06-14T11:06:49.335Z,135
2018-06-14T11:07:59.414Z,125
2018-06-14T11:09:08.702Z,110
2018-06-14T11:10:18.830Z,100
2018-06-14T11:11:28.916Z,95
2018-06-14T11:12:38.986Z,95
2018-06-14T11:13:49.074Z,95
2018-06-14T11:14:59.157Z,95
2018-06-14T11:16:08.964Z,95
2018-06-14T11:17:18.780Z,90
2018-06-14T11:18:28.590Z,90
2018-06-14T11:19:38.675Z,90
2018-06-14T11:20:48.495Z,90
2018-06-14T11:21:58.332Z,95
2018-06-14T11:23:08.449Z,95
2018-06-14T11:24:18.592Z,100
2018-06-14T11:25:28.391Z,105
2018-06-14T11:26:37.951Z,110
2018-06-14T11:27:48.077Z,115
2018-06-14T11:28:57.952Z,120
2018-06-14T11:30:08.485Z,115
2018-06-14T11:31:18.315Z,115
2018-06-14T11:32:28.157Z,115
2018-06-14T11:33:38.294Z,115
2018-06-14T11:34:48.380Z,110
2018-06-14T11:35:58.484Z,100
2018-06-14T11:37:08.556Z,95
2018-06-14T11:38:18.650Z,95
2018-06-14T11:39:28.746Z,105
2018-06-14T11:40:38.842Z,115
2018-06-14T11:41:48.658Z,130
2018-06-14T11:42:58.477Z,150
2018-06-14T11:44:08.572Z,170
2018-06-14T11:45:18.443Z,185
2018-06-14T11:46:28.534Z,190
2018-06-14T11:47:38.375Z,190
2018-06-14T11:48:47.944Z,195
2018-06-14T11:49:57.772Z,190
2018-06-14T11:51:07.673Z,185
2018-06-14T11:52:17.752Z,175
2018-06-14T11:53:27.583Z,165
2018-06-14T11:54:37.657Z,165
2018-06-14T11:55:47.753Z,170
2018-06-14T11:56:57.859Z,155
2018-06-14T11:58:07.961Z,145
2018-06-14T11:59:18.048Z,130
2018-06-14T12:00:28.120Z,125
2018-06-14T12:01:38.230Z,115
2018-06-14T12:02:48.326Z,115
2018-06-14T12:03:58.415Z,115
2018-06-14T12:05:08.500Z,125
2018-06-14T12:06:18.585Z,135
2018-06-14T12:07:28.678Z,150
2018-06-14T12:08:38.855Z,160
2018-06-14T12:09:48.949Z,175
2018-06-14T12:10:59.035Z,185
2018-06-14T12:12:09.379Z,195
2018-06-14T12:13:19.524Z,200
2018-06-14T12:14:29.624Z,190
2018-06-14T12:15:39.160Z,180
2018-06-14T12:16:49.283Z,165
2018-06-14T12:17:59.100Z,165
2018-06-14T12:19:09.190Z,160
2018-06-14T12:20:21.626Z,165
2018-06-14T12:21:34.408Z,175
2018-06-14T12:22:44.409Z,190
2018-06-14T12:23:54.496Z,200
2018-06-14T12:25:04.694Z,210
2018-06-14T12:26:14.513Z,220
2018-06-14T12:27:24.631Z,220
2018-06-14T12:28:34.742Z,215
2018-06-14T12:29:44.553Z,205
2018-06-14T12:30:54.685Z,190
2018-06-14T12:32:04.770Z,185
2018-06-14T12:33:14.858Z,180
2018-06-14T12:34:24.961Z,175
2018-06-14T12:35:35.065Z,170
2018-06-14T12:36:45.200Z,165
2018-06-14T12:37:55.368Z,165
2018-06-14T12:39:05.526Z,165
2018-06-14T12:40:15.352Z,170
2018-06-14T12:41:25.449Z,175
2018-06-14T12:42:35.606Z,185
2018-06-14T12:43:45.704Z,185
2018-06-14T12:44:55.762Z,180
2018-06-14T12:46:05.841Z,180
2018-06-14T12:47:15.996Z,180
2018-06-14T12:48:26.083Z,175
2018-06-14T12:49:36.191Z,175
2018-06-14T12:50:46.270Z,170
2018-06-14T12:51:56.376Z,165
2018-06-14T12:53:06.486Z,160
2018-06-14T12:54:16.316Z,155
2018-06-14T12:55:26.428Z,145
2018-06-14T12:56:36.548Z,140
2018-06-14T12:57:46.655Z,145
2018-06-14T12:58:56.477Z,145
2018-06-14T13:00:06.597Z,155
2018-06-14T13:01:16.710Z,155
2018-06-14T13:02:26.801Z,165
2018-06-14T13:03:36.606Z,180
2018-06-14T13:04:46.712Z,190
2018-06-14T13:05:56.819Z,205
2018-06-14T13:07:06.925Z,210
2018-06-14T13:08:17.021Z,215
2018-06-14T13:09:27.094Z,220
2018-06-14T13:10:37.193Z,210
2018-06-14T13:11:47.326Z,200
2018-06-14T13:12:57.422Z,200
2018-06-14T13:14:07.252Z,205
2018-06-14T13:15:16.814Z,195
2018-06-14T13:16:26.914Z,185
2018-06-14T13:17:36.864Z,180
2018-06-14T13:18:46.476Z,175
2018-06-14T13:19:56.588Z,180
2018-06-14T13:21:06.670Z,185
2018-06-14T13:22:16.546Z,190
2018-06-14T13:23:26.646Z,190
2018-06-14T13:24:36.717Z,185
2018-06-14T13:25:46.821Z,185
2018-06-14T13:26:56.678Z,180
2018-06-14T13:28:06.794Z,170
2018-06-14T13:29:16.876Z,155
2018-06-14T13:30:26.951Z,145
2018-06-14T13:31:37.028Z,140
2018-06-14T13:32:46.844Z,135
2018-06-14T13:33:56.405Z,125
2018-06-14T13:35:06.520Z,120
2018-06-14T13:36:16.614Z,120
2018-06-14T13:37:26.707Z,115
2018-06-14T13:46:38.339Z,95
2018-06-14T13:47:48.413Z,100
2018-06-14T13:48:59.120Z,105
2018-06-14T13:50:09.223Z,105
2018-06-14T13:51:19.317Z,110
2018-06-14T13:52:29.402Z,110
2018-06-14T13:53:39.486Z,110
2018-06-14T13:54:49.580Z,110
2018-06-14T13:55:59.401Z,110
2018-06-14T13:57:09.646Z,110
2018-06-14T13:58:19.741Z,110
2018-06-14T13:59:29.843Z,120
2018-06-14T14:00:39.955Z,135
2018-06-14T14:01:50.020Z,140
2018-06-14T14:03:00.125Z,140
2018-06-14T14:04:09.948Z,135
2018-06-14T14:05:19.509Z,115
2018-06-14T14:06:29.779Z,105
2018-06-14T14:07:39.924Z,100
2018-06-14T14:08:49.879Z,95
2018-06-14T14:10:00.007Z,90
2018-06-14T14:11:09.836Z,90
2018-06-14T14:12:19.633Z,85
2018-06-14T14:13:29.733Z,85
2018-06-14T14:14:40.075Z,80
2018-06-14T14:15:49.906Z,80
2018-06-14T14:17:00.003Z,85
2018-06-14T14:18:09.907Z,85
2018-06-14T14:19:19.996Z,85
2018-06-14T14:20:29.560Z,90
2018-06-14T14:21:39.634Z,90
2018-06-14T14:22:49.720Z,95
2018-06-14T14:24:00.054Z,95
2018-06-14T14:25:10.119Z,95
2018-06-14T14:26:19.929Z,90
2018-06-14T14:27:29.479Z,90
2018-06-14T14:28:39.580Z,95
2018-06-14T14:29:49.576Z,100
2018-06-14T14:30:59.677Z,110
2018-06-14T14:32:09.778Z,120
2018-06-14T14:33:19.917Z,130
2018-06-14T14:34:30.006Z,135
2018-06-14T14:35:39.847Z,140
2018-06-14T14:36:49.977Z,155
2018-06-14T14:37:59.860Z,160
2018-06-14T14:39:10.192Z,175
2018-06-14T14:40:20.021Z,175
2018-06-14T14:41:30.115Z,180
2018-06-14T14:42:39.936Z,175
2018-06-14T14:43:50.050Z,170
2018-06-14T14:45:01.146Z,155
2018-06-14T14:46:11.236Z,145
2018-06-14T14:47:21.331Z,145
2018-06-14T14:48:31.695Z,140
2018-06-14T14:49:41.838Z,135
2018-06-14T14:50:51.997Z,125
2018-06-14T14:52:02.094Z,120
2018-06-14T14:53:12.528Z,115
2018-06-14T14:54:22.716Z,110
2018-06-14T14:55:32.802Z,105
2018-06-14T14:56:42.963Z,95
2018-06-14T14:57:52.807Z,90
2018-06-14T14:59:02.632Z,85
2018-06-14T15:00:12.463Z,85
2018-06-14T15:01:22.563Z,85
2018-06-14T15:02:32.645Z,85
2018-06-14T15:03:42.732Z,85
2018-06-14T15:04:52.814Z,80
2018-06-14T15:06:02.888Z,80
2018-06-14T15:07:12.963Z,80
2018-06-14T15:08:23.090Z,80
2018-06-14T15:09:33.187Z,80
2018-06-14T15:10:43.275Z,80
2018-06-14T15:11:53.389Z,80
2018-06-14T15:13:03.187Z,75
2018-06-14T15:14:13.411Z,75
2018-06-14T15:15:23.573Z,80
2018-06-14T15:16:33.142Z,85
2018-06-14T15:17:42.973Z,90
2018-06-14T15:18:53.134Z,90
2018-06-14T15:20:03.304Z,90
2018-06-14T15:21:13.424Z,90
2018-06-14T15:22:23.521Z,90
2018-06-14T15:23:33.624Z,90
2018-06-14T15:24:43.748Z,90
2018-06-14T15:25:53.840Z,95
2018-06-14T15:27:03.995Z,100
2018-06-14T15:28:14.085Z,95
2018-06-14T15:29:24.185Z,100
2018-06-14T15:30:34.529Z,100
2018-06-14T15:31:44.621Z,105
2018-06-14T15:32:54.460Z,105
2018-06-14T15:34:04.575Z,105
2018-06-14T15:35:14.732Z,105
2018-06-14T15:36:24.573Z,105
2018-06-14T15:37:34.752Z,100
2018-06-14T15:38:44.848Z,95
2018-06-14T15:39:54.997Z,90
2018-06-14T15:41:04.871Z,90
2018-06-14T15:42:15.213Z,85
2018-06-14T15:43:25.350Z,80
2018-06-14T15:44:35.255Z,80
2018-06-14T15:45:45.337Z,80
2018-06-14T15:46:55.504Z,80
2018-06-14T15:48:05.608Z,80
2018-06-14T15:49:15.510Z,80
2018-06-14T15:50:25.640Z,80
2018-06-14T15:51:35.836Z,80
2018-06-14T15:52:45.960Z,80
2018-06-14T15:53:56.207Z,75
2018-06-14T15:55:06.359Z,70
2018-06-14T15:56:16.477Z,70
2018-06-14T15:57:26.622Z,65
2018-06-14T15:58:36.709Z,65
2018-06-14T15:59:46.807Z,60
2018-06-14T16:00:57.128Z,65
2018-06-14T16:02:07.245Z,65
2018-06-14T16:03:17.332Z,70
2018-06-14T16:04:27.667Z,70
2018-06-14T16:05:37.507Z,75
2018-06-14T16:06:47.649Z,70
2018-06-14T16:07:57.512Z,70
2018-06-14T16:09:07.595Z,70
2018-06-14T16:10:17.476Z,65
2018-06-14T16:11:27.315Z,60
2018-06-14T16:12:37.463Z,55
2018-06-14T16:13:47.607Z,55
2018-06-14T16:14:57.449Z,55
2018-06-14T16:16:07.554Z,55
2018-06-14T16:17:16.928Z,55
2018-06-14T16:18:27.088Z,55
2018-06-14T16:19:37.151Z,50
2018-06-14T16:20:47.258Z,50
2018-06-14T16:21:57.384Z,50
2018-06-14T16:23:07.468Z,50
2018-06-14T16:24:17.651Z,50
2018-06-14T16:25:28.000Z,50
2018-06-14T16:26:38.099Z,45
2018-06-14T16:27:47.927Z,45
2018-06-14T16:28:58.040Z,45
2018-06-14T16:30:08.192Z,45
2018-06-14T16:31:18.314Z,45
2018-06-14T16:32:28.482Z,45
2018-06-14T16:33:38.733Z,45
2018-06-14T16:34:48.852Z,40
2018-06-14T16:35:58.767Z,40
2018-06-14T16:37:08.858Z,40
2018-06-14T16:38:18.995Z,40
2018-06-14T16:39:29.161Z,40
2018-06-14T16:40:39.016Z,40
2018-06-14T16:41:49.109Z,40
2018-06-14T16:42:58.960Z,40
2018-06-14T16:44:08.785Z,40
2018-06-14T16:45:18.894Z,45
2018-06-14T16:46:29.025Z,45
2018-06-14T16:47:39.173Z,50
2018-06-14T16:48:49.280Z,50
2018-06-14T16:49:59.117Z,50
2018-06-14T16:51:09.242Z,55
2018-06-14T16:52:19.068Z,55
2018-06-14T16:53:29.259Z,50
2018-06-14T16:54:39.102Z,50
2018-06-14T16:55:49.199Z,50
2018-06-14T16:56:59.059Z,50
2018-06-14T16:58:09.369Z,50
2018-06-14T16:59:19.522Z,50
2018-06-14T17:00:29.645Z,50
2018-06-14T17:01:39.789Z,50
2018-06-14T17:02:49.623Z,50
2018-06-14T17:03:59.753Z,50
2018-06-14T17:05:10.103Z,50
2018-06-14T17:06:19.854Z,45